createdAt,value
2022-11-27T00:02:07.869Z,10.30
2022-11-27T00:07:09.724Z,10.60
2022-11-27T00:12:12.928Z,10.63
2022-11-27T00:17:14.784Z,11.33
2022-11-27T00:22:16.621Z,11.00
2022-11-27T00:27:19.786Z,11.00
2022-11-27T00:32:21.575Z,10.63
2022-11-27T00:37:23.326Z,10.40
2022-11-27T00:42:26.606Z,11.00
2022-11-27T00:47:28.412Z,11.37
2022-11-27T00:52:30.190Z,11.80
2022-11-27T00:57:33.410Z,11.77
2022-11-27T01:02:35.231Z,12.50
2022-11-27T01:07:37.172Z,10.93
2022-11-27T01:12:40.338Z,11.63
2022-11-27T01:17:42.133Z,10.20
2022-11-27T01:22:43.881Z,11.40
2022-11-27T01:27:47.221Z,11.20
2022-11-27T01:32:49.042Z,11.77
2022-11-27T01:37:50.872Z,10.70
2022-11-27T01:42:54.395Z,12.10
2022-11-27T01:47:57.722Z,10.30
2022-11-27T01:53:01.312Z,10.90
2022-11-27T01:58:08.273Z,10.83
2022-11-27T02:03:10.292Z,10.53
2022-11-27T02:08:12.995Z,11.30
2022-11-27T02:13:18.895Z,12.50
2022-11-27T02:18:23.306Z,12.30
2022-11-27T02:23:58.262Z,13.80
2022-11-27T02:29:03.570Z,13.00
2022-11-27T02:34:16.011Z,12.00
2022-11-27T02:39:19.494Z,11.50
2022-11-27T02:44:24.392Z,10.20
2022-11-27T02:49:26.262Z,11.20
2022-11-27T02:54:28.762Z,10.37
2022-11-27T02:59:32.083Z,11.03
2022-11-27T03:04:36.648Z,11.20
2022-11-27T03:09:39.651Z,10.80
2022-11-27T03:14:42.940Z,11.80
2022-11-27T03:19:48.655Z,11.90
2022-11-27T03:24:50.579Z,11.30
2022-11-27T03:29:54.776Z,12.17
2022-11-27T03:34:56.547Z,12.17
2022-11-27T03:39:58.370Z,9.53
2022-11-27T03:45:05.817Z,6.63
2022-11-27T03:50:15.779Z,5.70
2022-11-27T03:55:21.019Z,7.50
2022-11-27T04:00:24.169Z,6.70
2022-11-27T04:05:25.945Z,7.73
2022-11-27T04:10:27.769Z,9.60
2022-11-27T04:15:30.965Z,12.10
2022-11-27T04:20:32.733Z,12.10
2022-11-27T04:25:34.709Z,8.93
2022-11-27T04:30:37.882Z,7.47
2022-11-27T04:35:39.725Z,7.87
2022-11-27T04:40:41.506Z,8.00
2022-11-27T04:45:44.557Z,8.20
2022-11-27T04:50:46.403Z,9.00
2022-11-27T04:55:48.250Z,8.83
2022-11-27T05:00:51.528Z,9.57
2022-11-27T05:05:56.729Z,12.13
2022-11-27T05:11:00.466Z,12.10
2022-11-27T05:16:04.001Z,12.50
2022-11-27T05:21:06.966Z,10.53
2022-11-27T05:26:08.798Z,11.80
2022-11-27T05:31:12.096Z,10.57
2022-11-27T05:36:13.854Z,10.80
2022-11-27T05:41:15.698Z,10.60
2022-11-27T05:46:19.821Z,9.07
2022-11-27T05:51:21.648Z,9.33
2022-11-27T05:56:24.055Z,8.97
2022-11-27T06:01:27.227Z,10.87
2022-11-27T06:06:29.005Z,10.23
2022-11-27T06:11:30.808Z,9.07
2022-11-27T06:16:34.103Z,8.13
2022-11-27T06:21:36.014Z,8.70
2022-11-27T06:26:37.843Z,9.07
2022-11-27T06:31:41.102Z,10.70
2022-11-27T06:36:42.944Z,11.70
2022-11-27T06:41:44.766Z,12.20
2022-11-27T06:46:47.990Z,14.47
2022-11-27T06:51:50.646Z,13.53
2022-11-27T06:56:52.541Z,12.17
2022-11-27T07:01:56.214Z,11.80
2022-11-27T07:06:58.863Z,12.47
2022-11-27T07:12:00.655Z,14.03
2022-11-27T07:17:03.821Z,10.57
2022-11-27T07:22:05.621Z,10.33
2022-11-27T07:27:08.603Z,10.17
2022-11-27T07:32:11.802Z,10.57
2022-11-27T07:37:13.586Z,11.83
2022-11-27T07:42:37.894Z,10.80
2022-11-27T07:47:38.569Z,12.07
2022-11-27T07:52:42.233Z,11.07
2022-11-27T07:57:44.445Z,11.43
2022-11-27T08:02:47.578Z,10.17
2022-11-27T08:07:49.401Z,11.17
2022-11-27T08:12:51.226Z,11.53
2022-11-27T08:17:54.337Z,11.37
2022-11-27T08:23:01.198Z,11.67
2022-11-27T08:28:04.917Z,11.10
2022-11-27T08:33:08.052Z,11.23
2022-11-27T08:38:09.938Z,10.40
2022-11-27T08:43:11.727Z,10.10
2022-11-27T08:48:14.777Z,9.10
2022-11-27T08:53:16.654Z,8.53
2022-11-27T08:58:18.536Z,9.13
2022-11-27T09:03:21.675Z,9.53
2022-11-27T09:08:23.417Z,9.47
2022-11-27T09:13:25.256Z,9.80
2022-11-27T09:18:28.456Z,9.37
2022-11-27T09:23:30.233Z,11.20
2022-11-27T09:28:32.068Z,11.80
2022-11-27T09:33:36.078Z,12.40
2022-11-27T09:38:38.236Z,11.23
2022-11-27T09:43:45.181Z,11.10
2022-11-27T09:48:49.268Z,12.73
2022-11-27T09:53:52.706Z,11.87
2022-11-27T09:58:56.586Z,10.60
2022-11-27T10:04:00.852Z,10.17
2022-11-27T10:09:09.115Z,8.87
2022-11-27T10:14:22.196Z,8.90
2022-11-27T10:19:31.082Z,9.00
2022-11-27T10:24:37.483Z,9.73
2022-11-27T10:29:41.518Z,10.37
2022-11-27T10:34:48.562Z,9.10
2022-11-27T10:39:52.732Z,8.57
2022-11-27T10:44:57.907Z,8.40
2022-11-27T10:50:16.500Z,8.60
2022-11-27T10:55:21.626Z,9.57
2022-11-27T11:00:24.000Z,9.30
2022-11-27T11:10:53.724Z,9.67
2022-11-27T11:15:57.950Z,9.53
2022-11-27T11:21:02.302Z,9.00
2022-11-27T11:26:07.314Z,9.70
2022-11-27T11:31:09.856Z,9.33
2022-11-27T11:36:13.236Z,8.80
2022-11-27T11:41:17.957Z,9.27
2022-11-27T11:46:22.752Z,9.97
2022-11-27T11:51:34.996Z,9.17
2022-11-27T11:56:38.616Z,10.50
2022-11-27T12:01:54.302Z,11.33
2022-11-27T12:07:00.257Z,10.27
2022-11-27T12:12:04.925Z,12.43
2022-11-27T12:17:17.122Z,15.87
2022-11-27T12:22:26.856Z,11.83
2022-11-27T12:27:46.100Z,10.43
2022-11-27T12:33:26.964Z,10.07
2022-11-27T12:38:38.673Z,11.13
2022-11-27T12:43:42.045Z,9.57
2022-11-27T12:48:46.512Z,10.37
2022-11-27T12:53:52.135Z,9.87
2022-11-27T12:58:56.360Z,9.97
2022-11-27T13:04:03.681Z,9.60
2022-11-27T13:09:08.098Z,8.70
2022-11-27T13:14:11.737Z,9.80
2022-11-27T13:19:16.654Z,9.03
2022-11-27T13:24:19.831Z,9.37
2022-11-27T13:29:29.755Z,9.67
2022-11-27T13:34:31.811Z,9.07
2022-11-27T13:39:36.869Z,9.53
2022-11-27T13:44:41.655Z,10.13
2022-11-27T13:49:48.352Z,9.80
2022-11-27T13:54:55.416Z,10.40
2022-11-27T13:59:58.616Z,11.23
2022-11-27T14:05:00.400Z,13.40
2022-11-27T14:10:09.142Z,13.80
2022-11-27T14:15:20.508Z,15.30
2022-11-27T14:20:28.019Z,17.30
2022-11-27T14:25:31.739Z,17.20
2022-11-27T14:30:35.022Z,47.00
2022-11-27T14:35:36.792Z,45.30
2022-11-27T14:40:39.958Z,16.07
2022-11-27T14:45:43.944Z,16.80
2022-11-27T14:50:45.804Z,14.20
2022-11-27T14:55:49.628Z,15.00
2022-11-27T15:00:52.465Z,16.47
2022-11-27T15:05:56.230Z,16.17
2022-11-27T15:10:59.512Z,16.20
2022-11-27T15:16:03.480Z,20.37
2022-11-27T15:21:09.816Z,15.97
2022-11-27T15:26:17.960Z,18.17
2022-11-27T15:31:30.810Z,15.43
2022-11-27T15:36:39.700Z,13.30
2022-11-27T15:41:49.888Z,12.90
2022-11-27T15:46:52.305Z,14.03
2022-11-27T15:51:54.874Z,15.13
2022-11-27T15:56:58.070Z,14.27
2022-11-27T16:02:00.020Z,11.87
2022-11-27T16:07:01.931Z,12.73
2022-11-27T16:12:05.722Z,12.80
2022-11-27T16:17:07.546Z,12.90
2022-11-27T16:22:09.327Z,11.63
2022-11-27T16:27:12.458Z,13.40
2022-11-27T16:32:14.256Z,12.70
2022-11-27T16:37:18.549Z,15.10
2022-11-27T16:42:21.960Z,14.07
2022-11-27T16:47:23.873Z,12.23
2022-11-27T16:52:25.634Z,12.40
2022-11-27T16:57:28.868Z,10.80
2022-11-27T17:02:31.040Z,12.60
2022-11-27T17:07:33.023Z,10.93
2022-11-27T17:12:36.259Z,14.90
2022-11-27T17:17:40.214Z,14.00
2022-11-27T17:29:43.116Z,13.13
2022-11-27T17:34:46.507Z,13.80
2022-11-27T17:39:48.469Z,14.50
2022-11-27T17:44:50.634Z,12.60
2022-11-27T17:49:53.787Z,13.37
2022-11-27T17:54:56.878Z,12.90
2022-11-27T17:59:58.603Z,11.73
2022-11-27T18:05:02.043Z,14.60
2022-11-27T18:10:05.254Z,15.30
2022-11-27T18:15:09.488Z,14.37
2022-11-27T18:20:13.190Z,12.80
2022-11-27T18:25:15.000Z,12.30
2022-11-27T18:30:16.994Z,12.77
2022-11-27T18:35:23.242Z,11.90
2022-11-27T18:40:25.007Z,12.10
2022-11-27T18:45:33.320Z,12.00
2022-11-27T18:50:39.578Z,12.27
2022-11-27T18:55:41.630Z,11.10
2022-11-27T19:00:44.648Z,11.87
2022-11-27T19:05:48.773Z,11.20
2022-11-27T19:10:50.736Z,11.67
2022-11-27T19:15:52.600Z,14.10
2022-11-27T19:20:55.918Z,12.00
2022-11-27T19:26:04.325Z,10.40
2022-11-27T19:31:07.303Z,11.33
2022-11-27T19:36:11.443Z,10.70
2022-11-27T19:41:14.008Z,10.00
2022-11-27T19:46:16.250Z,9.27
2022-11-27T19:51:19.422Z,9.50
2022-11-27T19:56:21.507Z,9.80
2022-11-27T20:01:24.399Z,10.10
2022-11-27T20:06:29.274Z,9.17
2022-11-27T20:11:34.814Z,8.70
2022-11-27T20:16:38.717Z,11.87
2022-11-27T20:21:42.297Z,10.40
2022-11-27T20:26:44.087Z,9.93
2022-11-27T20:31:45.959Z,9.80
2022-11-27T20:36:49.075Z,9.27
2022-11-27T20:41:51.300Z,9.07
2022-11-27T20:46:52.994Z,12.67
2022-11-27T20:51:57.735Z,10.67
2022-11-27T20:56:59.523Z,9.20
2022-11-27T21:02:02.733Z,10.63
2022-11-27T21:07:06.330Z,11.27
2022-11-27T21:12:08.131Z,10.63
2022-11-27T21:17:09.988Z,11.03
2022-11-27T21:22:13.172Z,10.93
2022-11-27T21:27:15.138Z,10.40
2022-11-27T21:32:22.597Z,11.53
2022-11-27T21:37:26.115Z,10.50
2022-11-27T21:42:29.292Z,11.80
2022-11-27T21:47:31.125Z,11.53
2022-11-27T21:52:35.546Z,12.17
2022-11-27T21:57:37.303Z,12.87
2022-11-27T22:02:39.222Z,11.60
2022-11-27T22:07:42.730Z,11.93
2022-11-27T22:12:44.468Z,12.10
2022-11-27T22:17:46.294Z,13.20
2022-11-27T22:22:49.597Z,12.00
2022-11-27T22:27:51.398Z,12.53
2022-11-27T22:32:53.248Z,14.00
2022-11-27T22:37:56.496Z,12.70
2022-11-27T22:42:58.410Z,12.63
2022-11-27T22:48:00.180Z,11.33
2022-11-27T22:53:03.313Z,10.77
2022-11-27T22:58:05.134Z,11.47
2022-11-27T23:03:07.685Z,10.60
2022-11-27T23:08:10.956Z,11.73
2022-11-27T23:13:13.522Z,12.37
2022-11-27T23:18:15.363Z,12.27
2022-11-27T23:23:18.430Z,11.80
2022-11-27T23:28:20.195Z,11.30
2022-11-27T23:33:21.939Z,12.10
2022-11-27T23:38:25.060Z,12.27
2022-11-27T23:43:26.778Z,12.30
2022-11-27T23:48:28.571Z,12.10
2022-11-27T23:53:31.647Z,11.30
2022-11-27T23:58:33.479Z,11.13
